createdAt,value
2022-07-28T00:02:24.027Z,31.70
2022-07-28T00:04:50.671Z,31.88
2022-07-28T00:07:18.270Z,31.92
2022-07-28T00:09:48.786Z,32.23
2022-07-28T00:12:15.575Z,32.19
2022-07-28T00:14:42.161Z,32.67
2022-07-28T00:17:09.250Z,32.08
2022-07-28T00:19:36.134Z,32.41
2022-07-28T00:22:03.508Z,32.25
2022-07-28T00:24:30.449Z,32.39
2022-07-28T00:26:57.328Z,32.42
2022-07-28T00:29:24.121Z,32.46
2022-07-28T00:31:52.349Z,32.52
2022-07-28T00:34:19.471Z,32.43
2022-07-28T00:36:53.113Z,32.52
2022-07-28T00:39:20.941Z,32.54
2022-07-28T00:41:49.742Z,32.87
2022-07-28T00:44:17.022Z,33.08
2022-07-28T00:46:45.688Z,32.86
2022-07-28T00:49:14.773Z,32.96
2022-07-28T00:51:42.139Z,33.28
2022-07-28T00:54:11.439Z,33.48
2022-07-28T00:56:38.670Z,33.58
2022-07-28T00:59:05.598Z,33.88
2022-07-28T01:01:32.230Z,33.52
2022-07-28T01:03:59.469Z,33.48
2022-07-28T01:06:26.316Z,33.80
2022-07-28T01:08:52.945Z,33.62
2022-07-28T01:11:19.572Z,33.62
2022-07-28T01:13:46.763Z,33.61
2022-07-28T01:16:13.356Z,33.85
2022-07-28T01:18:40.994Z,34.29
2022-07-28T01:21:08.453Z,34.25
2022-07-28T01:23:35.022Z,34.16
2022-07-28T01:26:02.834Z,33.99
2022-07-28T01:28:29.344Z,34.25
2022-07-28T01:30:56.325Z,34.58
2022-07-28T01:33:23.402Z,34.71
2022-07-28T01:35:53.209Z,34.46
2022-07-28T01:38:20.639Z,34.69
2022-07-28T01:40:48.569Z,35.46
2022-07-28T01:43:18.563Z,35.17
2022-07-28T01:45:45.468Z,34.67
2022-07-28T01:48:12.901Z,34.94
2022-07-28T01:50:39.759Z,34.58
2022-07-28T01:53:06.274Z,34.76
2022-07-28T01:55:33.081Z,34.74
2022-07-28T01:57:59.897Z,34.43
2022-07-28T02:00:27.791Z,34.39
2022-07-28T02:02:54.774Z,34.35
2022-07-28T02:05:21.975Z,34.86
2022-07-28T02:07:49.257Z,34.33
2022-07-28T02:10:15.898Z,34.24
2022-07-28T02:12:42.691Z,34.31
2022-07-28T02:15:09.734Z,34.74
2022-07-28T02:17:38.821Z,35.02
2022-07-28T02:20:05.904Z,35.09
2022-07-28T02:22:32.515Z,34.88
2022-07-28T02:24:59.358Z,34.51
2022-07-28T02:27:26.436Z,34.44
2022-07-28T02:29:54.713Z,34.46
2022-07-28T02:32:27.852Z,34.49
2022-07-28T02:34:55.063Z,34.60
2022-07-28T02:37:22.826Z,34.82
2022-07-28T02:40:00.380Z,34.81
2022-07-28T02:42:27.307Z,34.77
2022-07-28T02:44:54.361Z,34.58
2022-07-28T02:47:21.714Z,34.92
2022-07-28T02:49:48.243Z,34.65
2022-07-28T02:52:15.655Z,34.43
2022-07-28T02:54:42.648Z,34.57
2022-07-28T02:57:10.043Z,34.80
2022-07-28T02:59:36.668Z,34.82
2022-07-28T03:02:03.433Z,34.60
2022-07-28T03:04:29.922Z,35.24
2022-07-28T03:07:01.553Z,34.83
2022-07-28T03:09:28.167Z,34.81
2022-07-28T03:11:56.400Z,34.82
2022-07-28T03:14:23.449Z,35.04
2022-07-28T03:16:55.135Z,35.32
2022-07-28T03:19:22.458Z,35.45
2022-07-28T03:21:49.098Z,35.43
2022-07-28T03:24:17.210Z,35.41
2022-07-28T03:26:44.292Z,35.31
2022-07-28T03:29:11.175Z,35.18
2022-07-28T03:31:37.792Z,35.40
2022-07-28T03:36:49.745Z,35.21
2022-07-28T03:39:18.305Z,35.17
2022-07-28T03:41:44.962Z,35.37
2022-07-28T03:44:11.959Z,34.94
2022-07-28T03:46:39.108Z,35.10
2022-07-28T03:52:18.514Z,34.81
2022-07-28T03:54:50.083Z,35.06
2022-07-28T03:57:17.777Z,35.58
2022-07-28T03:59:44.705Z,35.61
2022-07-28T04:02:11.246Z,35.64
2022-07-28T04:04:38.053Z,35.48
2022-07-28T04:07:05.257Z,35.31
2022-07-28T04:09:33.820Z,35.19
2022-07-28T04:12:00.405Z,35.26
2022-07-28T04:14:47.070Z,34.72
2022-07-28T04:17:14.123Z,34.95
2022-07-28T04:19:41.042Z,34.67
2022-07-28T04:22:09.534Z,35.25
2022-07-28T04:24:36.627Z,35.29
2022-07-28T04:27:03.504Z,35.36
2022-07-28T04:29:30.238Z,35.31
2022-07-28T04:31:58.231Z,35.36
2022-07-28T04:34:25.153Z,35.47
2022-07-28T04:36:52.617Z,35.87
2022-07-28T04:39:19.212Z,35.35
2022-07-28T04:41:46.321Z,35.45
2022-07-28T04:44:13.393Z,35.34
2022-07-28T04:46:40.747Z,35.09
2022-07-28T04:51:58.344Z,35.37
2022-07-28T04:54:26.886Z,35.47
2022-07-28T04:56:53.588Z,35.61
2022-07-28T04:59:20.276Z,35.12
2022-07-28T05:01:48.109Z,35.12
2022-07-28T05:04:15.085Z,35.08
2022-07-28T05:06:46.949Z,34.84
2022-07-28T05:09:13.896Z,35.16
2022-07-28T05:11:40.965Z,35.11
2022-07-28T05:14:15.534Z,34.82
2022-07-28T05:16:44.880Z,34.95
2022-07-28T05:19:14.600Z,35.00
2022-07-28T05:21:41.161Z,34.53
2022-07-28T05:24:08.053Z,34.17
2022-07-28T05:29:41.810Z,33.54
2022-07-28T05:32:16.453Z,32.75
2022-07-28T05:34:44.596Z,32.19
2022-07-28T05:37:11.622Z,31.74
2022-07-28T05:39:38.650Z,31.46
2022-07-28T05:42:07.814Z,31.22
2022-07-28T05:44:38.290Z,30.83
2022-07-28T05:47:12.472Z,30.73
2022-07-28T05:52:33.033Z,30.29
2022-07-28T05:55:06.889Z,30.31
2022-07-28T05:57:33.552Z,29.99
2022-07-28T06:00:00.272Z,30.15
2022-07-28T06:02:26.918Z,30.16
2022-07-28T06:04:56.832Z,29.50
2022-07-28T06:07:23.443Z,30.05
2022-07-28T06:10:11.940Z,29.47
2022-07-28T06:12:38.821Z,29.74
2022-07-28T06:15:06.228Z,29.70
2022-07-28T06:17:33.077Z,29.11
2022-07-28T06:19:59.826Z,29.30
2022-07-28T06:22:26.418Z,29.09
2022-07-28T06:24:53.011Z,29.09
2022-07-28T06:27:20.617Z,29.01
2022-07-28T06:29:50.995Z,28.56
2022-07-28T06:32:17.782Z,28.32
2022-07-28T06:34:44.369Z,28.59
2022-07-28T06:37:13.675Z,28.84
2022-07-28T06:39:40.625Z,28.59
2022-07-28T06:42:07.324Z,28.44
2022-07-28T06:44:57.366Z,28.54
2022-07-28T06:47:22.536Z,28.79
2022-07-28T06:49:49.662Z,28.87
2022-07-28T06:52:16.779Z,28.78
2022-07-28T06:54:47.735Z,28.50
2022-07-28T06:57:15.560Z,28.23
2022-07-28T06:59:45.431Z,28.48
2022-07-28T07:02:12.242Z,28.34
2022-07-28T07:04:38.982Z,28.54
2022-07-28T07:07:15.481Z,28.31
2022-07-28T07:09:43.933Z,28.36
2022-07-28T07:12:10.471Z,28.23
2022-07-28T07:14:37.260Z,28.53
2022-07-28T07:17:04.036Z,28.62
2022-07-28T07:19:30.697Z,28.55
2022-07-28T07:22:00.015Z,28.32
2022-07-28T07:24:27.485Z,28.56
2022-07-28T07:26:55.175Z,28.34
2022-07-28T07:29:21.970Z,28.36
2022-07-28T07:31:53.154Z,28.00
2022-07-28T07:34:20.487Z,28.21
2022-07-28T07:36:47.130Z,28.30
2022-07-28T07:39:15.465Z,27.97
2022-07-28T07:41:42.104Z,28.34
2022-07-28T07:44:08.821Z,28.24
2022-07-28T07:46:37.419Z,28.45
2022-07-28T07:49:04.056Z,28.11
2022-07-28T07:51:30.764Z,28.04
2022-07-28T07:53:57.233Z,28.23
2022-07-28T07:56:23.898Z,27.96
2022-07-28T07:58:56.493Z,28.12
2022-07-28T08:01:23.744Z,27.70
2022-07-28T08:03:50.696Z,27.72
2022-07-28T08:06:17.883Z,27.96
2022-07-28T08:08:54.468Z,28.08
2022-07-28T08:11:21.273Z,27.99
2022-07-28T08:13:47.940Z,28.18
2022-07-28T08:16:15.266Z,28.19
2022-07-28T08:21:32.579Z,28.46
2022-07-28T08:23:59.866Z,29.02
2022-07-28T08:26:26.633Z,28.52
2022-07-28T08:28:53.493Z,28.68
2022-07-28T08:31:20.557Z,28.78
2022-07-28T08:33:53.696Z,28.71
2022-07-28T08:36:22.141Z,28.42
2022-07-28T08:38:49.209Z,28.85
2022-07-28T08:41:15.830Z,28.95
2022-07-28T08:43:42.556Z,29.13
2022-07-28T08:46:09.760Z,29.12
2022-07-28T08:48:38.298Z,29.37
2022-07-28T08:51:05.090Z,29.59
2022-07-28T08:53:31.686Z,29.75
2022-07-28T08:55:58.708Z,29.49
2022-07-28T08:58:25.312Z,29.61
2022-07-28T09:00:51.902Z,29.83
2022-07-28T09:03:19.035Z,29.51
2022-07-28T09:05:49.314Z,29.61
2022-07-28T09:08:16.742Z,29.46
2022-07-28T09:10:43.353Z,29.46
2022-07-28T09:13:13.521Z,29.38
2022-07-28T09:15:40.368Z,29.33
2022-07-28T09:18:09.277Z,29.47
2022-07-28T09:20:36.010Z,29.65
2022-07-28T09:23:04.944Z,29.29
2022-07-28T09:25:53.598Z,29.19
2022-07-28T09:28:20.849Z,28.90
2022-07-28T09:30:54.109Z,29.22
2022-07-28T09:33:43.014Z,29.25
2022-07-28T09:36:08.002Z,29.79
2022-07-28T09:38:34.790Z,29.24
2022-07-28T09:41:01.333Z,29.42
2022-07-28T09:43:29.908Z,28.93
2022-07-28T09:45:58.434Z,29.16
2022-07-28T09:48:26.171Z,28.92
2022-07-28T09:50:53.172Z,28.75
2022-07-28T09:53:19.780Z,28.73
2022-07-28T09:55:49.455Z,28.97
2022-07-28T09:58:16.198Z,28.85
2022-07-28T10:00:43.734Z,28.75
2022-07-28T10:03:11.977Z,29.35
2022-07-28T10:05:38.718Z,29.45
2022-07-28T10:08:05.664Z,28.99
2022-07-28T10:10:32.467Z,28.95
2022-07-28T10:12:59.304Z,29.03
2022-07-28T10:15:31.237Z,29.06
2022-07-28T10:17:58.348Z,29.16
2022-07-28T10:20:25.116Z,28.44
2022-07-28T10:22:51.670Z,28.86
2022-07-28T10:25:18.597Z,28.84
2022-07-28T10:27:46.124Z,28.43
2022-07-28T10:30:12.728Z,28.29
2022-07-28T10:32:42.674Z,28.36
2022-07-28T10:35:09.557Z,28.09
2022-07-28T10:37:36.172Z,27.93
2022-07-28T10:40:07.782Z,27.61
2022-07-28T10:42:36.341Z,27.71
2022-07-28T10:45:03.229Z,27.74
2022-07-28T10:47:36.324Z,27.79
2022-07-28T10:50:03.368Z,27.40
2022-07-28T10:52:46.863Z,27.53
2022-07-28T10:55:15.165Z,27.73
2022-07-28T10:57:47.402Z,27.40
2022-07-28T11:00:41.932Z,27.52
2022-07-28T11:03:17.782Z,27.67
2022-07-28T11:05:44.490Z,27.32
2022-07-28T11:08:11.078Z,27.00
2022-07-28T11:10:38.350Z,26.82
2022-07-28T11:13:04.971Z,26.67
2022-07-28T11:15:32.715Z,26.91
2022-07-28T11:17:59.533Z,26.67
2022-07-28T11:20:29.551Z,26.64
2022-07-28T11:22:57.101Z,26.59
2022-07-28T11:25:24.898Z,26.31
2022-07-28T11:27:52.552Z,26.39
2022-07-28T11:30:21.533Z,26.17
2022-07-28T11:32:50.470Z,26.42
2022-07-28T11:35:18.384Z,26.01
2022-07-28T11:37:45.088Z,26.43
2022-07-28T11:40:11.703Z,26.69
2022-07-28T11:42:43.452Z,26.83
2022-07-28T11:45:15.503Z,26.58
2022-07-28T11:47:43.270Z,26.55
2022-07-28T11:50:09.781Z,26.79
2022-07-28T11:52:37.292Z,26.55
2022-07-28T11:55:05.218Z,26.85
2022-07-28T11:57:31.821Z,26.78
2022-07-28T11:59:58.797Z,26.70
2022-07-28T12:02:26.377Z,26.37
2022-07-28T12:04:53.146Z,26.39
2022-07-28T12:07:19.818Z,25.83
2022-07-28T12:09:46.409Z,25.89
2022-07-28T12:12:16.211Z,25.38
2022-07-28T12:14:42.938Z,24.41
2022-07-28T12:17:09.669Z,24.64
2022-07-28T12:19:37.538Z,24.97
2022-07-28T12:22:04.646Z,24.73
2022-07-28T12:24:31.254Z,24.95
2022-07-28T12:26:58.030Z,24.24
2022-07-28T12:29:24.702Z,24.79
2022-07-28T12:31:58.681Z,24.41
2022-07-28T12:34:28.686Z,24.68
2022-07-28T12:36:55.980Z,24.18
2022-07-28T12:39:23.517Z,24.43
2022-07-28T12:41:54.013Z,23.74
2022-07-28T12:44:20.920Z,23.58
2022-07-28T12:46:47.753Z,23.21
2022-07-28T12:49:14.533Z,23.20
2022-07-28T12:51:41.183Z,23.30
2022-07-28T12:54:09.012Z,23.02
2022-07-28T12:56:35.624Z,23.47
2022-07-28T12:59:05.298Z,22.79
2022-07-28T13:01:32.494Z,22.59
2022-07-28T13:03:59.945Z,22.32
2022-07-28T13:06:26.633Z,21.85
2022-07-28T13:08:53.371Z,21.96
2022-07-28T13:14:10.407Z,21.55
2022-07-28T13:16:38.922Z,21.71
2022-07-28T13:19:07.162Z,22.09
2022-07-28T13:21:33.850Z,21.95
2022-07-28T13:24:00.440Z,21.69
2022-07-28T13:26:27.420Z,21.94
2022-07-28T13:28:54.425Z,21.24
2022-07-28T13:31:21.091Z,21.38
2022-07-28T13:33:48.133Z,21.12
2022-07-28T13:36:14.954Z,21.53
2022-07-28T13:38:41.877Z,21.16
2022-07-28T13:41:08.829Z,20.91
2022-07-28T13:43:36.163Z,21.15
2022-07-28T13:46:06.870Z,21.41
2022-07-28T13:48:33.694Z,21.23
2022-07-28T13:51:00.545Z,21.34
2022-07-28T13:53:27.764Z,21.39
2022-07-28T13:55:54.610Z,21.54
2022-07-28T13:58:21.634Z,21.29
2022-07-28T14:00:49.806Z,21.15
2022-07-28T14:03:16.602Z,21.38
2022-07-28T14:05:44.074Z,20.97
2022-07-28T14:08:10.990Z,21.02
2022-07-28T14:10:37.580Z,21.62
2022-07-28T14:13:04.212Z,21.59
2022-07-28T14:15:31.101Z,21.30
2022-07-28T14:17:58.126Z,21.59
2022-07-28T14:20:25.045Z,21.11
2022-07-28T14:22:51.700Z,21.16
2022-07-28T14:25:20.997Z,21.37
2022-07-28T14:27:48.328Z,21.43
2022-07-28T14:30:14.912Z,21.30
2022-07-28T14:32:41.534Z,21.01
2022-07-28T14:35:15.522Z,20.98
2022-07-28T14:38:15.773Z,20.83
2022-07-28T14:40:29.122Z,20.87
2022-07-28T14:42:55.798Z,21.32
2022-07-28T14:45:25.603Z,20.20
2022-07-28T14:47:52.569Z,20.22
2022-07-28T14:50:20.387Z,20.55
2022-07-28T14:52:49.544Z,20.06
2022-07-28T14:55:16.176Z,20.17
2022-07-28T14:57:48.479Z,19.99
2022-07-28T15:00:20.850Z,19.73
2022-07-28T15:02:48.291Z,19.63
2022-07-28T15:05:15.534Z,19.72
2022-07-28T15:07:42.298Z,19.30
2022-07-28T15:10:09.461Z,19.73
2022-07-28T15:12:36.429Z,19.72
2022-07-28T15:15:02.984Z,20.26
2022-07-28T15:17:29.666Z,20.77
2022-07-28T15:19:56.323Z,20.10
2022-07-28T15:22:26.241Z,19.97
2022-07-28T15:24:53.314Z,20.27
2022-07-28T15:27:20.053Z,20.65
2022-07-28T15:29:46.749Z,20.22
2022-07-28T15:32:16.999Z,20.33
2022-07-28T15:34:45.735Z,20.19
2022-07-28T15:37:12.388Z,20.08
2022-07-28T15:39:43.268Z,19.58
2022-07-28T15:42:13.019Z,19.94
2022-07-28T15:44:40.109Z,20.12
2022-07-28T15:47:06.744Z,20.34
2022-07-28T15:49:36.010Z,20.23
2022-07-28T15:52:10.067Z,19.63
2022-07-28T15:54:37.515Z,20.02
2022-07-28T15:57:04.446Z,20.21
2022-07-28T15:59:50.260Z,19.94
2022-07-28T16:02:18.054Z,19.72
2022-07-28T16:04:47.831Z,19.49
2022-07-28T16:07:22.448Z,19.67
2022-07-28T16:09:49.282Z,19.69
2022-07-28T16:12:15.993Z,19.55
2022-07-28T16:14:42.747Z,19.67
2022-07-28T16:17:09.331Z,19.18
2022-07-28T16:19:48.607Z,19.76
2022-07-28T16:22:16.362Z,19.77
2022-07-28T16:24:43.282Z,19.57
2022-07-28T16:27:10.860Z,20.34
2022-07-28T16:29:38.394Z,21.07
2022-07-28T16:32:08.835Z,21.38
2022-07-28T16:34:46.483Z,20.60
2022-07-28T16:37:19.074Z,19.94
2022-07-28T16:39:46.551Z,20.10
2022-07-28T16:42:13.123Z,19.84
2022-07-28T16:44:41.477Z,19.67
2022-07-28T16:47:08.412Z,20.18
2022-07-28T16:49:35.051Z,20.32
2022-07-28T16:52:01.851Z,20.91
2022-07-28T16:54:28.739Z,21.60
2022-07-28T16:56:55.405Z,21.80
2022-07-28T16:59:22.477Z,22.52
2022-07-28T17:01:49.437Z,22.65
2022-07-28T17:04:16.902Z,24.03
2022-07-28T17:06:47.822Z,23.02
2022-07-28T17:09:15.425Z,23.64
2022-07-28T17:11:42.094Z,22.54
2022-07-28T17:14:11.255Z,22.08
2022-07-28T17:19:33.217Z,19.56
2022-07-28T17:22:00.180Z,20.10
2022-07-28T17:24:26.703Z,20.13
2022-07-28T17:29:40.140Z,19.82
2022-07-28T17:32:06.895Z,20.04
2022-07-28T17:34:33.846Z,19.51
2022-07-28T17:37:00.863Z,20.08
2022-07-28T17:39:27.611Z,20.47
2022-07-28T17:41:56.611Z,20.98
2022-07-28T17:44:25.623Z,21.45
2022-07-28T17:46:52.385Z,21.26
2022-07-28T17:49:21.357Z,21.34
2022-07-28T17:51:48.000Z,21.45
2022-07-28T17:54:18.924Z,21.31
2022-07-28T17:56:50.154Z,21.38
2022-07-28T17:59:17.349Z,21.32
2022-07-28T18:01:45.681Z,21.81
2022-07-28T18:04:12.475Z,22.43
2022-07-28T18:06:39.242Z,23.53
2022-07-28T18:09:07.182Z,24.45
2022-07-28T18:11:35.974Z,24.17
2022-07-28T18:14:10.376Z,24.53
2022-07-28T18:16:37.179Z,23.98
2022-07-28T18:19:03.718Z,22.36
2022-07-28T18:21:30.918Z,21.78
2022-07-28T18:23:58.503Z,21.06
2022-07-28T18:26:25.460Z,21.28
2022-07-28T18:28:52.090Z,21.81
2022-07-28T18:31:18.864Z,21.86
2022-07-28T18:33:45.926Z,21.51
2022-07-28T18:36:12.580Z,19.27
2022-07-28T18:38:39.305Z,18.80
2022-07-28T18:41:05.886Z,18.20
2022-07-28T18:43:35.463Z,18.02
2022-07-28T18:46:04.804Z,17.91
2022-07-28T18:48:31.745Z,17.91
2022-07-28T18:50:58.744Z,17.47
2022-07-28T18:53:25.650Z,17.50
2022-07-28T18:55:52.839Z,17.16
2022-07-28T18:58:19.700Z,17.43
2022-07-28T19:00:46.479Z,16.90
2022-07-28T19:03:13.617Z,17.19
2022-07-28T19:05:45.541Z,17.23
2022-07-28T19:08:15.010Z,17.08
2022-07-28T19:10:44.058Z,17.36
2022-07-28T19:13:12.954Z,17.11
2022-07-28T19:15:42.839Z,17.32
2022-07-28T19:18:11.076Z,17.42
2022-07-28T19:20:38.466Z,17.50
2022-07-28T19:23:05.801Z,17.65
2022-07-28T19:25:34.877Z,17.55
2022-07-28T19:28:01.794Z,18.00
2022-07-28T19:30:28.526Z,18.27
2022-07-28T19:32:55.164Z,18.40
2022-07-28T19:35:21.706Z,18.54
2022-07-28T19:37:48.839Z,18.51
2022-07-28T19:40:15.361Z,18.47
2022-07-28T19:42:42.024Z,18.41
2022-07-28T19:45:09.169Z,18.28
2022-07-28T19:47:36.829Z,18.88
2022-07-28T19:50:04.441Z,19.07
2022-07-28T19:52:31.215Z,18.97
2022-07-28T19:55:04.267Z,19.13
2022-07-28T19:57:31.795Z,19.11
2022-07-28T19:59:58.559Z,19.30
2022-07-28T20:02:25.723Z,19.66
2022-07-28T20:04:54.131Z,19.72
2022-07-28T20:07:21.002Z,20.03
2022-07-28T20:09:47.566Z,20.65
2022-07-28T20:12:14.540Z,21.12
2022-07-28T20:14:41.365Z,21.29
2022-07-28T20:17:08.355Z,21.63
2022-07-28T20:19:35.293Z,21.55
2022-07-28T20:22:03.979Z,21.82
2022-07-28T20:24:30.714Z,21.85
2022-07-28T20:26:57.550Z,21.79
2022-07-28T20:29:24.227Z,21.54
2022-07-28T20:31:51.102Z,21.79
2022-07-28T20:34:20.100Z,21.90
2022-07-28T20:36:54.180Z,21.97
2022-07-28T20:39:43.696Z,21.71
2022-07-28T20:42:08.112Z,21.72
2022-07-28T20:44:34.977Z,21.66
2022-07-28T20:47:04.487Z,21.32
2022-07-28T20:49:32.061Z,22.05
2022-07-28T20:51:59.055Z,21.58
2022-07-28T20:54:25.894Z,21.63
2022-07-28T20:56:52.676Z,21.63
2022-07-28T20:59:19.244Z,21.69
2022-07-28T21:01:47.050Z,21.66
2022-07-28T21:04:14.038Z,22.04
2022-07-28T21:06:50.831Z,22.12
2022-07-28T21:09:19.521Z,21.70
2022-07-28T21:11:46.409Z,21.55
2022-07-28T21:14:13.336Z,21.33
2022-07-28T21:16:40.328Z,21.24
2022-07-28T21:19:07.074Z,21.65
2022-07-28T21:21:33.959Z,21.91
2022-07-28T21:24:00.540Z,21.82
2022-07-28T21:26:28.949Z,21.79
2022-07-28T21:28:55.787Z,22.04
2022-07-28T21:31:22.318Z,22.14
2022-07-28T21:33:49.811Z,21.77
2022-07-28T21:36:16.533Z,21.70
2022-07-28T21:38:45.234Z,21.84
2022-07-28T21:41:12.647Z,22.02
2022-07-28T21:43:43.709Z,22.13
2022-07-28T21:46:10.634Z,21.90
2022-07-28T21:48:37.348Z,21.82
2022-07-28T21:51:04.097Z,22.40
2022-07-28T21:53:43.282Z,22.60
2022-07-28T21:56:10.472Z,22.36
2022-07-28T21:58:39.812Z,22.80
2022-07-28T22:01:06.570Z,22.73
2022-07-28T22:03:33.229Z,22.47
2022-07-28T22:05:59.827Z,22.64
2022-07-28T22:08:26.435Z,22.61
2022-07-28T22:10:53.001Z,22.29
2022-07-28T22:13:19.698Z,22.54
2022-07-28T22:15:46.611Z,22.14
2022-07-28T22:18:16.623Z,22.48
2022-07-28T22:20:45.480Z,22.56
2022-07-28T22:23:28.698Z,22.35
2022-07-28T22:25:56.646Z,22.80
2022-07-28T22:28:29.433Z,22.84
2022-07-28T22:30:56.759Z,22.58
2022-07-28T22:33:23.831Z,22.99
2022-07-28T22:35:50.865Z,22.91
2022-07-28T22:38:20.490Z,22.79
2022-07-28T22:40:47.250Z,22.33
2022-07-28T22:43:13.903Z,22.24
2022-07-28T22:45:49.686Z,22.48
2022-07-28T22:48:17.777Z,22.38
2022-07-28T22:50:44.559Z,22.18
2022-07-28T22:53:11.267Z,22.34
2022-07-28T22:55:40.322Z,22.43
2022-07-28T22:58:07.100Z,22.32
2022-07-28T23:00:36.311Z,21.96
2022-07-28T23:03:05.082Z,22.31
2022-07-28T23:05:32.032Z,22.10
2022-07-28T23:07:59.685Z,22.16
2022-07-28T23:10:26.472Z,22.14
2022-07-28T23:12:57.290Z,22.02
2022-07-28T23:15:40.733Z,22.41
2022-07-28T23:18:08.038Z,22.48
2022-07-28T23:20:34.596Z,22.45
2022-07-28T23:23:02.237Z,22.73
2022-07-28T23:25:36.300Z,22.85
2022-07-28T23:28:04.642Z,23.30
2022-07-28T23:30:31.175Z,23.18
2022-07-28T23:32:57.730Z,23.06
2022-07-28T23:35:24.260Z,23.02
2022-07-28T23:37:51.793Z,23.27
2022-07-28T23:40:18.876Z,22.70
2022-07-28T23:42:47.259Z,22.84
2022-07-28T23:45:14.056Z,23.00
2022-07-28T23:47:40.645Z,23.00
2022-07-28T23:50:07.105Z,22.82
2022-07-28T23:52:33.888Z,22.75
2022-07-28T23:55:00.437Z,22.97
2022-07-28T23:57:30.892Z,22.92
2022-07-28T23:59:59.166Z,22.96
